Time;durP1;ratioP1;P1;durP2;ratioP2;P2;SDS_P1;SDS_P2;PMS_P1;PMS_P2;Temp;Humidity;BMP_temperature;BMP_pressure;BME280_temperature;BME280_humidity;BME280_pressure;Samples;Min_cycle;Max_cycle;Signal;HPM_P1;HPM_P2
2022/11/23 00:03:47;;;;;;;;;;;;;;;;;;;;;
2022/11/23 01:30:22;;;;;;;27.93;16.13;;;6.10;99.90;;;;;;6306630;22;20030;-88
2022/11/23 01:40:04;;;;;;;27.60;15.40;;;8.00;99.90;;;;;;6303846;22;20269;-88
2022/11/23 01:43:14;;;;;;;25.80;15.17;;;7.30;99.90;;;;;;6313172;22;20022;-89
2022/11/23 01:46:17;;;;;;;28.05;16.20;;;7.30;99.90;;;;;;6315022;22;20023;-88
2022/11/23 01:48:48;;;;;;;25.33;15.27;;;7.20;99.90;;;;;;6252638;22;20064;-88
2022/11/23 01:51:18;;;;;;;26.53;15.37;;;8.00;99.90;;;;;;6315829;22;20443;-88
2022/11/23 01:54:08;;;;;;;26.70;15.20;;;6.70;99.90;;;;;;6313523;22;20023;-88
2022/11/23 02:03:18;;;;;;;25.47;15.17;;;7.00;99.90;;;;;;6305709;22;20027;-88
2022/11/23 02:06:23;;;;;;;25.90;14.83;;;6.80;99.90;;;;;;6261454;22;20023;-89
2022/11/23 02:16:27;;;;;;;24.47;13.83;;;7.10;99.90;;;;;;6213612;23;20070;-88
2022/11/23 02:19:06;;;;;;;;;;;;;;;;;;;;;
2022/11/23 02:22:34;;;;;;;25.97;14.60;;;7.00;99.90;;;;;;6216898;23;20087;-89
2022/11/23 02:25:44;;;;;;;;;;;;;;;;;;;;;
2022/11/23 02:32:11;;;;;;;;;;;;;;;;;;;;;
2022/11/23 02:38:55;;;;;;;;;;;;;;;;;;;;;
2022/11/23 13:01:59;;;;;;;13.88;2.60;;;11.90;99.90;;;;;;6296686;22;20022;-85
2022/11/23 13:04:58;;;;;;;11.63;2.20;;;10.30;99.90;;;;;;6185193;23;20028;-86
2022/11/23 13:07:57;;;;;;;10.60;2.22;;;10.90;99.90;;;;;;6205090;22;20019;-86
2022/11/23 13:11:01;;;;;;;8.93;2.10;;;10.90;99.90;;;;;;6309744;22;20025;-86
2022/11/23 13:13:58;;;;;;;;;;;10.70;99.90;;;;;;6310515;22;20015;-86
2022/11/23 13:17:01;;;;;;;9.43;2.40;;;10.80;99.90;;;;;;6309592;22;20322;-86
2022/11/23 13:20:03;;;;;;;14.20;2.65;;;11.00;99.90;;;;;;6310085;22;20011;-86
2022/11/23 13:22:45;;;;;;;12.10;2.88;;;11.00;99.90;;;;;;6338185;22;20018;-86
2022/11/23 13:25:30;;;;;;;10.77;2.58;;;12.10;99.90;;;;;;6338301;22;20057;-86
2022/11/23 13:28:31;;;;;;;8.45;2.30;;;10.90;99.90;;;;;;6338186;22;20011;-86
2022/11/23 13:31:17;;;;;;;9.38;2.30;;;10.30;99.90;;;;;;6183090;23;20031;-85
2022/11/23 13:33:45;;;;;;;10.75;2.40;;;10.30;99.90;;;;;;6209417;23;20443;-86
2022/11/23 13:36:41;;;;;;;13.45;2.67;;;10.90;99.90;;;;;;6185201;23;20020;-85
2022/11/23 13:39:59;;;;;;;11.20;2.33;;;10.90;99.90;;;;;;6185640;23;20029;-86
2022/11/23 13:42:37;;;;;;;12.85;2.50;;;10.90;99.90;;;;;;6191440;23;20012;-86
2022/11/23 13:45:24;;;;;;;12.35;3.05;;;10.80;99.90;;;;;;6246571;22;20510;-86
2022/11/23 13:48:09;;;;;;;10.27;2.45;;;10.80;99.90;;;;;;6341254;22;20087;-84
2022/11/23 13:50:38;;;;;;;;;;;10.70;99.90;;;;;;6337890;22;20026;-85
2022/11/23 13:53:31;;;;;;;11.35;2.88;;;10.60;99.90;;;;;;6338135;22;19997;-87
2022/11/23 13:56:51;;;;;;;10.75;4.55;;;10.50;99.90;;;;;;6311735;22;20014;-86
2022/11/23 13:59:40;;;;;;;;;;;;;;;;;;;;;
2022/11/23 14:03:05;;;;;;;;;;;11.90;99.90;;;;;;6218514;22;20102;-90
2022/11/23 14:05:50;;;;;;;14.80;3.10;;;10.30;99.90;;;;;;6210668;23;20435;-88
2022/11/23 14:09:22;;;;;;;15.23;2.70;;;10.00;99.90;;;;;;6204186;23;20463;-89
2022/11/23 14:12:48;;;;;;;11.60;2.92;;;9.30;99.90;;;;;;6123807;23;20394;-88
2022/11/23 14:19:20;;;;;;;13.40;2.75;;;10.50;99.90;;;;;;6184512;23;20020;-88
2022/11/23 14:22:23;;;;;;;13.25;3.40;;;9.70;99.90;;;;;;6188134;23;20031;-88
2022/11/23 14:52:26;;;;;;;9.75;2.38;;;8.80;99.90;;;;;;6312310;22;20023;-87
2022/11/23 15:00:17;;;;;;;13.80;3.40;;;9.50;99.90;;;;;;6218918;22;20152;-88
2022/11/23 15:03:20;;;;;;;11.47;3.53;;;8.10;99.90;;;;;;6102660;23;20070;-88
2022/11/23 15:14:11;;;;;;;14.37;4.60;;;8.20;99.90;;;;;;5979304;24;20059;-88
2022/11/23 15:16:47;;;;;;;11.47;3.30;;;8.30;99.90;;;;;;5956769;24;20021;-88
2022/11/23 15:19:42;;;;;;;9.97;3.20;;;8.90;99.90;;;;;;5932409;24;20358;-88
2022/11/23 15:27:58;;;;;;;9.80;2.73;;;7.80;99.90;;;;;;6395967;22;20026;-88
2022/11/23 15:30:38;;;;;;;12.90;3.40;;;9.00;99.90;;;;;;6372749;22;20021;-89
2022/11/23 15:33:18;;;;;;;12.67;3.40;;;8.20;99.90;;;;;;6372731;22;20053;-88
2022/11/23 15:36:12;;;;;;;11.40;3.03;;;8.80;99.90;;;;;;6400182;22;20028;-88
2022/11/23 15:46:03;;;;;;;13.70;4.43;;;8.20;99.90;;;;;;6367412;22;20025;-89
2022/11/23 15:49:17;;;;;;;13.50;3.93;;;7.20;99.90;;;;;;6372139;22;20058;-87
2022/11/23 16:02:01;;;;;;;11.57;3.17;;;7.90;99.90;;;;;;6336175;22;20023;-88
2022/11/23 16:39:09;;;;;;;;;;;;;;;;;;;;;
2022/11/23 17:48:32;;;;;;;9.20;3.10;;;7.20;99.90;;;;;;6371616;22;20022;-90
2022/11/23 18:14:08;;;;;;;12.10;3.60;;;7.00;99.90;;;;;;6261087;22;20029;-91
2022/11/23 18:16:47;;;;;;;12.33;4.13;;;6.90;99.90;;;;;;6334343;22;20075;-90
2022/11/23 18:53:18;;;;;;;12.07;4.70;;;7.20;99.90;;;;;;6328668;22;20023;-92
2022/11/23 19:24:39;;;;;;;15.03;6.90;;;7.10;99.90;;;;;;6299848;22;20027;-91
2022/11/23 19:30:25;;;;;;;15.00;7.20;;;7.20;99.90;;;;;;6332815;22;20451;-91
2022/11/23 19:33:37;;;;;;;16.27;8.10;;;7.30;99.90;;;;;;6342285;22;20092;-91
2022/11/23 19:39:22;;;;;;;15.63;7.47;;;7.40;99.90;;;;;;6255062;22;20384;-91
2022/11/23 19:41:54;;;;;;;17.03;7.83;;;7.40;99.90;;;;;;6343133;22;20011;-91
2022/11/23 19:45:10;;;;;;;16.93;7.90;;;7.30;99.90;;;;;;6315818;22;20439;-93
2022/11/23 19:47:46;;;;;;;15.93;8.67;;;8.80;99.90;;;;;;6344922;22;20023;-92
2022/11/23 19:50:21;;;;;;;18.30;9.00;;;8.80;99.90;;;;;;6316310;22;20331;-93
2022/11/23 19:55:25;;;;;;;17.33;9.33;;;7.50;99.90;;;;;;6321873;22;20092;-90
2022/11/23 20:10:40;;;;;;;15.63;9.13;;;7.60;99.90;;;;;;6371493;22;20026;-91
2022/11/23 20:17:25;;;;;;;18.77;9.35;;;7.70;99.90;;;;;;6099070;23;20018;-90
2022/11/23 20:20:06;;;;;;;17.20;9.43;;;7.70;99.90;;;;;;6121944;23;20021;-89
2022/11/23 20:22:43;;;;;;;18.93;8.80;;;7.50;99.90;;;;;;6098900;23;20018;-90
2022/11/23 20:25:13;;;;;;;17.10;9.50;;;7.30;99.90;;;;;;6126277;23;20103;-90
2022/11/23 20:27:40;;;;;;;15.43;9.27;;;9.30;99.90;;;;;;6256860;22;20067;-90
2022/11/23 20:30:17;;;;;;;16.47;9.03;;;8.40;99.90;;;;;;6342337;22;20312;-90
2022/11/23 20:32:43;;;;;;;16.33;9.30;;;7.60;99.90;;;;;;6373884;22;20014;-90
2022/11/23 20:35:20;;;;;;;15.00;8.93;;;7.70;99.90;;;;;;6342144;22;20101;-90
2022/11/23 20:37:55;;;;;;;18.47;8.73;;;7.70;99.90;;;;;;6389590;22;20039;-90
2022/11/23 20:40:40;;;;;;;16.37;9.03;;;6.60;99.90;;;;;;6386045;22;20018;-90
2022/11/23 20:43:05;;;;;;;18.67;9.10;;;7.70;99.90;;;;;;6343737;22;20044;-91
2022/11/23 20:45:34;;;;;;;20.10;8.97;;;7.50;99.90;;;;;;6340646;22;20022;-91
2022/11/23 20:48:02;;;;;;;16.60;9.10;;;7.60;99.90;;;;;;6369445;22;20014;-90
2022/11/23 20:50:37;;;;;;;17.43;8.87;;;7.50;99.90;;;;;;6300209;22;20438;-91
2022/11/23 20:53:06;;;;;;;17.40;8.83;;;6.60;99.90;;;;;;6309732;22;20026;-91
2022/11/23 20:55:35;;;;;;;16.60;8.53;;;6.90;99.90;;;;;;6310532;22;20019;-91
2022/11/23 20:58:27;;;;;;;18.80;9.80;;;6.60;99.90;;;;;;6338849;22;20019;-91
2022/11/23 21:01:16;;;;;;;18.00;9.13;;;7.60;99.90;;;;;;6311581;22;20327;-90
2022/11/23 21:04:07;;;;;;;19.10;9.77;;;7.60;99.90;;;;;;6342248;22;20029;-90
2022/11/23 21:09:00;;;;;;;17.77;8.83;;;7.40;99.90;;;;;;6342069;22;20019;-91
2022/11/23 21:14:53;;;;;;;17.40;8.93;;;7.10;99.90;;;;;;6312670;22;20019;-92
2022/11/23 21:17:20;;;;;;;17.93;8.93;;;6.80;99.90;;;;;;6339800;22;20018;-89
2022/11/23 21:19:45;;;;;;;20.37;9.87;;;7.00;99.90;;;;;;6339814;22;20045;-88
2022/11/23 21:22:13;;;;;;;18.60;10.07;;;8.70;99.90;;;;;;6313041;22;20035;-89
2022/11/23 21:24:39;;;;;;;18.97;9.50;;;7.00;99.90;;;;;;6312040;22;20140;-89
2022/11/23 21:27:32;;;;;;;18.27;9.90;;;7.10;99.90;;;;;;6312833;22;20359;-91
2022/11/23 21:30:04;;;;;;;20.13;9.53;;;8.10;99.90;;;;;;6265364;22;20015;-90
2022/11/23 21:32:39;;;;;;;19.40;10.33;;;6.90;99.90;;;;;;6340619;22;20010;-89
2022/11/23 21:35:15;;;;;;;19.20;10.20;;;6.50;99.90;;;;;;6310346;22;20027;-88
2022/11/23 21:37:53;;;;;;;20.83;10.60;;;6.70;99.90;;;;;;6340657;22;20029;-88
2022/11/23 21:40:24;;;;;;;19.03;9.67;;;6.80;99.90;;;;;;6311231;22;20011;-88
2022/11/23 21:42:50;;;;;;;20.93;10.80;;;7.40;99.90;;;;;;6344848;22;20042;-88
2022/11/23 21:45:31;;;;;;;21.67;10.73;;;6.10;99.90;;;;;;6313284;22;20021;-88
2022/11/23 21:48:07;;;;;;;22.90;11.67;;;7.00;99.90;;;;;;6313150;22;20053;-89
2022/11/23 21:50:32;;;;;;;21.60;11.20;;;7.40;99.90;;;;;;6316254;22;20068;-88
2022/11/23 21:53:01;;;;;;;19.77;11.00;;;7.60;99.90;;;;;;6313680;22;20014;-88
2022/11/23 21:55:38;;;;;;;20.47;11.27;;;7.90;99.90;;;;;;6340194;22;20053;-88
2022/11/23 21:58:04;;;;;;;23.87;10.97;;;7.40;99.90;;;;;;6311072;22;20126;-90
2022/11/23 22:00:30;;;;;;;19.07;10.73;;;8.00;99.90;;;;;;6311458;22;20042;-89
2022/11/23 22:02:57;;;;;;;21.90;11.47;;;6.30;99.90;;;;;;6310689;22;20018;-89
2022/11/23 22:05:30;;;;;;;21.90;10.40;;;7.30;99.90;;;;;;6336940;22;20018;-89
2022/11/23 22:07:56;;;;;;;24.13;12.30;;;7.20;99.90;;;;;;6337825;22;20015;-89
2022/11/23 22:10:21;;;;;;;25.07;12.60;;;7.10;99.90;;;;;;6336957;22;20029;-88
2022/11/23 22:12:47;;;;;;;23.87;12.57;;;7.00;99.90;;;;;;6312438;22;20022;-88
2022/11/23 22:15:14;;;;;;;22.17;11.43;;;7.10;99.90;;;;;;6340532;22;20446;-89
2022/11/23 22:17:39;;;;;;;21.90;11.57;;;7.20;99.90;;;;;;6309125;22;20072;-89
2022/11/23 22:20:06;;;;;;;19.40;11.00;;;7.10;99.90;;;;;;6310819;22;20023;-88
2022/11/23 22:22:32;;;;;;;19.23;10.83;;;6.90;99.90;;;;;;6342537;22;20090;-89
2022/11/23 22:24:57;;;;;;;25.83;12.17;;;6.90;99.90;;;;;;6306725;22;20376;-89
2022/11/23 22:27:23;;;;;;;23.07;11.43;;;6.80;99.90;;;;;;6310788;22;20019;-88
2022/11/23 22:29:58;;;;;;;23.77;11.23;;;6.90;99.90;;;;;;6310065;22;20707;-88
2022/11/23 22:32:39;;;;;;;23.70;11.83;;;7.20;99.90;;;;;;6337568;22;20454;-90
2022/11/23 22:35:06;;;;;;;25.70;12.70;;;6.50;99.90;;;;;;6339560;22;20011;-87
2022/11/23 22:41:19;;;;;;;23.97;12.23;;;6.10;99.90;;;;;;6300126;22;20023;-89
2022/11/23 22:43:46;;;;;;;26.20;12.87;;;6.40;99.90;;;;;;6313578;22;20015;-89
2022/11/23 22:46:15;;;;;;;47.20;13.40;;;6.40;99.90;;;;;;6311108;22;20022;-89
2022/11/23 22:48:42;;;;;;;28.87;12.27;;;7.00;99.90;;;;;;6311658;22;20011;-89
2022/11/23 22:51:11;;;;;;;26.83;12.40;;;6.30;99.90;;;;;;6311920;22;20442;-88
2022/11/23 22:56:30;;;;;;;24.77;12.10;;;6.40;99.90;;;;;;6338933;22;20015;-89
2022/11/23 22:59:08;;;;;;;25.07;11.87;;;6.40;99.90;;;;;;6339296;22;20065;-89
2022/11/23 23:01:34;;;;;;;25.07;12.03;;;6.30;99.90;;;;;;6310572;22;20383;-89
2022/11/23 23:04:09;;;;;;;27.20;12.87;;;6.30;99.90;;;;;;6311584;22;20048;-89
2022/11/23 23:06:35;;;;;;;25.23;11.70;;;6.20;99.90;;;;;;6309250;22;20436;-89
2022/11/23 23:09:03;;;;;;;25.57;11.70;;;6.30;99.90;;;;;;6339109;22;20084;-89
2022/11/23 23:11:31;;;;;;;28.50;12.10;;;6.20;99.90;;;;;;6311078;22;20045;-89
2022/11/23 23:14:02;;;;;;;22.80;10.90;;;6.30;99.90;;;;;;6310243;22;20015;-89
2022/11/23 23:16:28;;;;;;;25.80;12.10;;;6.30;99.90;;;;;;6311209;22;20033;-89
2022/11/23 23:19:08;;;;;;;24.33;12.20;;;6.10;99.90;;;;;;6316980;22;20370;-90
2022/11/23 23:21:40;;;;;;;22.33;10.90;;;6.10;99.90;;;;;;6311926;22;20015;-90
2022/11/23 23:24:06;;;;;;;23.27;11.13;;;6.90;99.90;;;;;;6360554;22;20045;-90
2022/11/23 23:26:46;;;;;;;21.57;10.63;;;6.20;99.90;;;;;;6329126;22;20023;-89
2022/11/23 23:29:24;;;;;;;22.87;10.77;;;6.20;99.90;;;;;;6340984;22;20015;-89
2022/11/23 23:31:52;;;;;;;25.20;10.37;;;6.20;99.90;;;;;;6311686;22;20011;-89
2022/11/23 23:34:39;;;;;;;18.80;10.53;;;7.30;99.90;;;;;;6312366;22;20839;-90
2022/11/23 23:37:04;;;;;;;28.57;10.53;;;7.20;99.90;;;;;;6340221;22;20059;-90
2022/11/23 23:39:46;;;;;;;21.77;9.83;;;6.30;99.90;;;;;;6313260;22;20338;-90
2022/11/23 23:42:12;;;;;;;21.17;9.97;;;6.40;99.90;;;;;;6338524;22;20018;-90
2022/11/23 23:44:38;;;;;;;23.17;10.23;;;7.10;99.90;;;;;;6338840;22;20048;-90
2022/11/23 23:47:09;;;;;;;22.47;9.67;;;6.90;99.90;;;;;;6311510;22;20031;-90
2022/11/23 23:49:35;;;;;;;23.67;9.23;;;6.60;99.90;;;;;;6310048;22;20015;-89
2022/11/23 23:52:15;;;;;;;21.10;9.20;;;5.30;99.90;;;;;;6339365;22;20067;-90
2022/11/23 23:54:50;;;;;;;21.13;8.83;;;6.70;99.90;;;;;;6311015;22;20686;-90
2022/11/23 23:57:18;;;;;;;27.30;10.57;;;8.40;99.90;;;;;;6337964;22;20019;-90
2022/11/23 23:59:44;;;;;;;20.50;8.83;;;6.70;99.90;;;;;;6311130;22;20441;-91
